Weather observations for the past three days for
Pagosa Springs, Wolf Creek Pass
Imperial (Metric)
Date Time (mdt) Wind (mph) Vis. (mi.) Weather Sky Cond. Temperature (ºF) Relative Humidity Wind Chill (°F) Heat Index (°F) Pressure Precipitation (in)
Air Dwpt 6 hour altimeter (in) sea level (mb) 1 hr 3 hr 6 hr
Max. Min.
30 23:35 SE 5 10.00 Thunderstorm SCT041 BKN047 BKN090 41 39.2 93% 38 30.72 0.0
30 23:15 Calm 10.00 Overcast SCT038 OVC045 42.8 37.4 81% 30.72 0.0
30 22:55 W 3 10.00 Overcast SCT035 BKN047 OVC100 41 41 100% 30.72 0.0 0.03
30 22:35 W 7 10.00 Thunderstorm in Vicinity SCT028 BKN055 OVC090 41 41 100% 37 30.72 0.0 0.03
30 22:15 SW 10 G 24 4.00 Thunderstorm in Vicinity SCT023 BKN030 OVC036 41 41 100% 35 30.72 0.0 0.02
30 21:55 W 13 G 20 7.00 Thunderstorm SCT027 BKN035 OVC045 44.6 39.2 81% 39 30.72 0.0 0.01
30 21:35 NW 10 G 16 10.00 Thunderstorm in Vicinity BKN029 BKN048 OVC065 46.4 41 82% 42 30.7 0.0
30 21:15 W 6 10.00 Overcast SCT028 BKN050 OVC075 46.4 41 82% 44 30.69 0.0
30 20:55 SW 5 10.00 Thunderstorm in Vicinity SCT031 SCT037 BKN080 44.6 39.2 81% 43 30.68 0.0
30 20:35 SW 6 10.00 Partly Cloudy SCT035 SCT070 SCT080 44.6 37.4 76% 42 30.67 0.0
30 20:15 SW 12 G 17 10.00 Thunderstorm SCT025 SCT036 BKN070 44.6 39.2 81% 39 30.67 0.0
30 19:55 W 12 G 21 4.00 Overcast SCT023 BKN031 OVC044 42.8 41 93% 37 30.67 0.0 0.04
30 19:35 NW 7 G 21 4.00 Thunderstorm BKN031 OVC038 42.8 37.4 81% 39 30.67 0.0 0.02
30 19:15 W 5 G 17 10.00 Thunderstorm SCT033 BKN041 BKN050 50 37.4 62% 49 30.65 0.0
30 18:55 SW 10 G 17 10.00 Thunderstorm in Vicinity SCT036 SCT046 BKN060 51.8 37.4 58% 30.64 0.0
30 18:35 SW 13 G 20 10.00 Thunderstorm in Vicinity SCT037 SCT046 BKN060 51.8 39.2 62% 30.65 0.0
30 18:15 SW 9 G 20 10.00 Partly Cloudy SCT039 51.8 39.2 62% 30.65 0.0
30 17:55 SW 15 G 20 10.00 Thunderstorm in Vicinity CLR 51.8 37.4 58% 30.64 0.0
30 17:35 SW 17 G 25 10.00 Thunderstorm in Vicinity SCT044 53.6 37.4 54% 30.64 0.0
30 17:15 SW 16 G 25 10.00 Thunderstorm in Vicinity SCT034 SCT039 SCT045 53.6 37.4 54% 30.64 0.0
30 16:55 SW 17 G 25 10.00 Partly Cloudy SCT034 SCT049 55.4 39.2 55% 30.64 0.0
30 16:35 SW 15 G 26 10.00 Mostly Cloudy SCT030 SCT038 BKN055 53.6 39.2 58% 30.64 0.0
30 16:15 SW 14 G 25 10.00 Mostly Cloudy SCT030 SCT040 BKN055 53.6 39.2 58% 30.65 0.0
30 15:55 SW 14 G 25 10.00 Mostly Cloudy SCT026 SCT031 BKN040 53.6 39.2 58% 30.65 0.0
30 15:35 SW 16 G 29 10.00 Mostly Cloudy SCT021 SCT026 BKN031 53.6 41 63% 30.65 0.0
30 15:15 SW 15 G 25 10.00 Mostly Cloudy SCT021 BKN028 BKN036 53.6 41 63% 30.66 0.0
30 14:55 SW 13 G 24 10.00 Mostly Cloudy SCT018 SCT024 BKN033 51.8 42.8 72% 30.66 0.0
30 14:35 SW 14 G 24 10.00 Mostly Cloudy SCT016 SCT024 BKN030 51.8 42.8 72% 30.67 0.0
30 14:15 SW 15 G 23 10.00 Mostly Cloudy SCT014 SCT018 BKN031 51.8 42.8 72% 30.68 0.0
30 13:55 SW 15 G 22 10.00 Overcast BKN014 BKN023 OVC034 50 42.8 76% 45 30.68 0.0
30 13:35 SW 13 G 24 10.00 Overcast BKN014 OVC026 50 42.8 76% 46 30.69 0.0
30 13:15 SW 14 G 22 10.00 Overcast OVC016 50 42.8 76% 45 30.69 0.0
30 12:55 SW 12 G 22 10.00 Mostly Cloudy BKN014 BKN024 BKN030 51.8 42.8 72% 30.69 0.0
30 12:35 SW 15 G 24 10.00 Mostly Cloudy SCT010 BKN018 BKN024 50 42.8 76% 45 30.69 0.0
30 12:15 SW 12 G 26 10.00 Mostly Cloudy BKN010 BKN014 BKN020 50 42.8 76% 46 30.7 0.0
30 11:35 SW 13 G 21 10.00 Overcast BKN010 OVC018 48.2 42.8 82% 43 30.69 0.0
30 11:15 SW 12 G 17 10.00 Overcast BKN012 OVC017 46.4 42.8 87% 42 30.69 0.0
30 10:55 SW 15 G 20 10.00 Overcast SCT010 BKN015 OVC025 46.4 42.8 87% 41 30.69 0.0
30 10:35 SW 9 G 18 10.00 Overcast SCT011 BKN016 OVC060 46.4 42.8 87% 42 30.69 0.0
30 10:15 SW 9 10.00 Mostly Cloudy SCT009 SCT013 BKN024 46.4 42.8 87% 42 30.69 0.0
30 09:55 SW 10 10.00 Overcast SCT009 BKN024 OVC055 44.6 42.8 93% 40 30.69 0.0
30 09:35 SW 9 10.00 Mostly Cloudy BKN009 BKN028 BKN036 44.6 42.8 93% 40 30.68 0.0
30 09:15 SW 13 G 20 10.00 Mostly Cloudy BKN009 BKN028 42.8 41 93% 37 30.67 0.0
30 08:35 SW 10 10.00 Overcast BKN011 OVC028 42.8 41 93% 38 30.68 0.0
30 08:15 SW 12 10.00 Mostly Cloudy SCT011 SCT027 BKN039 42.8 41 93% 37 30.67 0.0
30 07:55 SW 10 10.00 Mostly Cloudy SCT014 SCT030 BKN038 41 41 100% 35 30.67 0.0
30 07:35 SW 10 10.00 Overcast SCT014 BKN029 OVC044 41 41 100% 35 30.67 0.0
30 07:15 SW 8 10.00 Overcast SCT006 BKN027 OVC043 41 41 100% 36 30.67 0.0
30 06:55 SW 9 10.00 Overcast OVC008 41 41 100% 36 30.67 0.0
30 06:35 SW 9 10.00 Overcast BKN008 BKN013 OVC033 41 41 100% 36 30.65 0.0
30 06:15 SW 10 10.00 Overcast BKN008 OVC013 41 41 100% 35 30.66 0.0
30 05:55 SW 10 10.00 Mostly Cloudy BKN010 BKN016 BKN032 41 41 100% 35 30.65 0.0
30 05:35 S 10 G 16 10.00 Partly Cloudy SCT032 SCT042 41 41 100% 35 30.65 0.0
30 05:15 SW 9 10.00 Partly Cloudy SCT040 41 41 100% 36 30.65 0.0
30 04:55 SW 9 10.00 Partly Cloudy SCT040 41 41 100% 36 30.66 0.0
30 04:35 SW 10 G 16 10.00 Partly Cloudy SCT040 41 41 100% 35 30.65 0.0
30 04:15 SW 12 10.00 Partly Cloudy SCT038 41 41 100% 35 30.65 0.0
30 03:55 SW 10 10.00 Fair CLR 41 41 100% 35 30.65 0.0
30 03:35 SW 13 10.00 Fair CLR 41 41 100% 34 30.65 0.0
30 03:15 SW 12 10.00 Fair CLR 41 41 100% 35 30.66 0.0
30 02:55 SW 15 10.00 Fair CLR 41 41 100% 34 30.66 0.0
30 02:35 SW 13 10.00 Fair CLR 41 41 100% 34 30.66 0.0
30 02:15 SW 12 G 16 10.00 Partly Cloudy SCT008 SCT014 41 41 100% 35 30.67 0.0
30 01:55 SW 13 G 21 10.00 Mostly Cloudy SCT008 SCT013 BKN018 41 41 100% 34 30.67 0.0
30 01:35 SW 14 G 22 10.00 Overcast SCT008 BKN012 OVC022 42.8 41 93% 36 30.68 0.0
30 01:15 SW 15 G 22 10.00 Mostly Cloudy SCT012 BKN022 42.8 41 93% 36 30.68 0.0
30 00:55 SW 15 G 24 10.00 Fair CLR 42.8 41 93% 36 30.67 0.0
30 00:35 SW 14 G 22 10.00 Fair CLR 42.8 41 93% 36 30.68 0.0
30 00:15 SW 12 10.00 Fair CLR 42.8 39.2 87% 37 30.68 0.0
29 23:55 SW 12 10.00 Partly Cloudy SCT048 SCT060 SCT080 42.8 39.2 87% 37 30.68 0.0
29 23:35 S 9 10.00 Overcast SCT048 BKN060 OVC085 42.8 41 93% 38 30.69 0.0
29 23:15 SW 17 G 24 10.00 Mostly Cloudy SCT024 SCT070 BKN085 44.6 39.2 81% 38 30.69 0.0
29 22:55 SW 17 G 26 10.00 Mostly Cloudy SCT022 SCT027 BKN034 44.6 39.2 81% 38 30.7 0.0
29 22:35 SW 18 G 30 10.00 Mostly Cloudy SCT029 BKN036 BKN047 44.6 37.4 76% 37 30.7 0.0
29 22:15 SW 28 G 37 10.00 Overcast and Windy SCT029 SCT042 OVC055 46.4 37.4 71% 38 30.7 0.0
29 21:55 SW 17 G 26 10.00 Overcast OVC055 48.2 37.4 66% 42 30.71 0.0
29 21:35 SW 15 G 22 10.00 Overcast BKN055 OVC065 50 35.6 58% 45 30.7 0.0
29 21:15 SW 14 G 22 10.00 Mostly Cloudy SCT060 BKN070 BKN085 50 35.6 58% 45 30.69 0.0
29 20:55 SW 9 G 18 10.00 Partly Cloudy SCT060 SCT070 SCT085 50 37.4 62% 47 30.69 0.0
29 20:35 SW 15 G 25 10.00 Fair CLR 50 37.4 62% 45 30.67 0.0
29 20:15 SW 14 G 24 10.00 Partly Cloudy SCT110 50 37.4 62% 45 30.67 0.0
29 19:55 SW 17 G 23 10.00 Partly Cloudy SCT040 SCT075 SCT080 50 37.4 62% 45 30.69 0.0
29 19:35 SW 15 G 22 10.00 Partly Cloudy SCT085 50 37.4 62% 45 30.69 0.0
29 19:15 SW 17 G 29 10.00 Partly Cloudy SCT085 51.8 37.4 58% 30.67 0.0
29 18:55 SW 21 G 32 10.00 Fair and Breezy CLR 51.8 37.4 58% 30.67 0.0
29 18:35 SW 20 G 31 10.00 Fair CLR 51.8 37.4 58% 30.67 0.0
29 18:15 SW 20 G 32 10.00 Fair CLR 55.4 37.4 51% 30.66 0.0
29 17:55 SW 18 G 28 10.00 Fair CLR 53.6 37.4 54% 30.66 0.0
29 17:35 SW 17 G 28 10.00 Fair CLR 53.6 37.4 54% 30.66 0.0
29 17:15 SW 23 G 30 10.00 Fair and Breezy CLR 53.6 37.4 54% 30.67 0.0
29 16:55 SW 21 G 33 10.00 Partly Cloudy and Breezy SCT047 SCT055 53.6 37.4 54% 30.68 0.0
29 16:35 SW 25 G 33 10.00 Mostly Cloudy and Breezy SCT040 SCT045 BKN055 53.6 37.4 54% 30.68 0.0
29 15:55 SW 15 G 28 10.00 Mostly Cloudy SCT038 BKN048 BKN060 53.6 41 63% 30.7 0.0
29 15:35 SW 13 G 22 10.00 Mostly Cloudy SCT038 SCT048 BKN050 53.6 41 63% 30.71 0.0
29 15:15 SW 14 G 26 10.00 Partly Cloudy SCT045 SCT060 SCT070 55.4 41 59% 30.71 0.0
29 14:55 SW 22 G 29 10.00 Mostly Cloudy and Breezy SCT036 SCT046 BKN070 53.6 41 63% 30.71 0.0
29 14:35 SW 18 G 30 10.00 Partly Cloudy SCT030 SCT049 SCT065 55.4 41 59% 30.72 0.0
29 14:15 SW 21 G 32 10.00 Thunderstorm in Vicinity and Breezy SCT027 BKN033 OVC075 51.8 42.8 72% 30.72 0.0
29 13:55 SW 23 G 36 10.00 Thunderstorm and Breezy SCT035 BKN042 OVC065 51.8 41 67% 30.72 0.0
29 13:35 SW 20 G 33 10.00 Thunderstorm in Vicinity SCT037 BKN070 OVC080 51.8 41 67% 30.72 0.0
29 13:15 SW 15 G 24 10.00 Thunderstorm SCT037 BKN060 OVC080 51.8 41 67% 30.73 0.0
29 12:55 SW 15 G 25 10.00 Overcast BKN038 OVC047 50 41 71% 45 30.74 0.0
29 12:35 SW 15 G 21 10.00 Overcast SCT038 BKN060 OVC080 53.6 39.2 58% 30.76 0.0
29 12:15 SW 17 G 26 10.00 Overcast SCT043 SCT050 OVC080 55.4 39.2 55% 30.76 0.0
29 11:55 SW 18 G 25 10.00 Mostly Cloudy BKN090 55.4 39.2 55% 30.76 0.0
29 11:35 SW 16 G 23 10.00 Partly Cloudy SCT100 55.4 39.2 55% 30.76 0.0
29 11:15 W 14 G 22 10.00 Fair CLR 55.4 37.4 51% 30.76 0.0
29 10:55 SW 13 G 18 10.00 Fair CLR 55.4 39.2 55% 30.76 0.0
29 10:35 SW 13 G 22 10.00 Fair CLR 51.8 37.4 58% 30.76 0.0
29 10:15 SW 14 G 20 10.00 Fair CLR 51.8 37.4 58% 30.76 0.0
29 09:55 SW 10 G 18 10.00 Fair CLR 50 37.4 62% 46 30.75 0.0
29 09:35 W 13 G 20 10.00 Partly Cloudy SCT095 50 37.4 62% 46 30.74 0.0
29 09:15 SW 9 10.00 Fair CLR 50 37.4 62% 47 30.74 0.0
29 08:55 W 13 G 17 10.00 Fair CLR 46.4 35.6 66% 41 30.75 0.0
29 08:35 SW 21 G 33 10.00 Partly Cloudy and Breezy SCT055 46.4 35.6 66% 39 30.74 0.0
29 08:15 W 13 G 26 10.00 Partly Cloudy SCT080 46.4 35.6 66% 41 30.74 0.0
29 07:55 W 14 G 18 10.00 Mostly Cloudy BKN080 44.6 37.4 76% 39 30.77 0.0
29 07:35 W 10 7.00 Overcast SCT034 BKN060 OVC080 44.6 37.4 76% 40 30.77 0.0
29 07:15 W 9 10.00 Overcast SCT060 OVC070 44.6 37.4 76% 40 30.77 0.0
29 06:55 SW 13 10.00 Overcast SCT050 OVC070 44.6 37.4 76% 39 30.76 0.0
29 06:35 SW 13 G 18 10.00 Mostly Cloudy BKN055 BKN070 44.6 35.6 71% 39 30.74 0.0
29 06:15 SW 13 G 17 10.00 Partly Cloudy SCT055 44.6 35.6 71% 39 30.74 0.0
29 05:55 SW 14 10.00 Fair CLR 44.6 35.6 71% 39 30.74 0.0
29 05:35 SW 12 G 17 10.00 Fair CLR 46.4 35.6 66% 42 30.74 0.0
29 05:15 W 10 10.00 Fair CLR 46.4 35.6 66% 42 30.74 0.0
29 04:55 SW 7 10.00 Fair CLR 46.4 35.6 66% 43 30.74 0.0
29 04:35 SW 8 10.00 Fair CLR 48.2 35.6 62% 45 30.74 0.0
29 04:15 SW 8 10.00 Fair CLR 50 35.6 58% 47 30.74 0.0
29 03:55 W 8 10.00 Fair CLR 50 35.6 58% 47 30.74 0.0
29 03:35 W 7 10.00 Partly Cloudy SCT090 SCT110 50 35.6 58% 48 30.74 0.0
29 03:15 W 7 10.00 Overcast BKN090 OVC110 50 35.6 58% 48 30.75 0.0
29 02:55 W 6 10.00 Overcast SCT070 OVC100 50 35.6 58% 48 30.76 0.0
29 02:35 W 8 10.00 Overcast BKN070 BKN080 OVC100 50 35.6 58% 47 30.76 0.0
29 02:15 W 8 10.00 Overcast SCT070 OVC100 50 35.6 58% 47 30.76 0.0
29 01:55 W 7 10.00 Overcast OVC100 50 35.6 58% 48 30.76 0.0
29 01:35 SW 5 10.00 Mostly Cloudy BKN110 48.2 35.6 62% 47 30.78 0.0
29 01:15 SW 6 10.00 Partly Cloudy SCT060 SCT110 48.2 35.6 62% 46 30.78 0.0
29 00:55 SW 7 10.00 Fair CLR 46.4 35.6 66% 43 30.77 0.0
29 00:35 SW 10 10.00 Fair CLR 48.2 35.6 62% 44 30.77 0.0
29 00:15 SW 13 G 25 10.00 Partly Cloudy SCT075 50 35.6 58% 46 30.77 0.0
28 23:55 SW 15 G 25 10.00 Partly Cloudy SCT075 50 35.6 58% 45 30.76 0.0
28 23:35 SW 14 G 20 10.00 Fair CLR 50 33.8 54% 45 30.76 0.0
28 23:15 SW 7 10.00 Partly Cloudy SCT095 50 35.6 58% 48 30.77 0.0
28 22:55 SW 9 10.00 Partly Cloudy SCT095 51.8 35.6 54% 30.77 0.0
28 22:35 SW 10 10.00 Fair CLR 51.8 35.6 54% 30.77 0.0
28 22:15 SW 10 10.00 Fair CLR 51.8 35.6 54% 30.77 0.0
28 21:55 SW 8 10.00 Fair CLR 51.8 33.8 50% 30.77 0.0
28 21:35 SW 8 10.00 Fair CLR 51.8 33.8 50% 30.77 0.0
28 21:15 S 9 10.00 Partly Cloudy SCT075 SCT090 51.8 33.8 50% 30.77 0.0
28 20:55 Calm 10.00 Mostly Cloudy SCT075 BKN090 51.8 33.8 50% 30.77 0.0
28 20:35 SE 5 10.00 Partly Cloudy SCT080 51.8 35.6 54% 30.77 0.0
28 20:15 Calm 10.00 Partly Cloudy SCT085 51.8 37.4 58% 30.76 0.0
28 19:55 E 5 10.00 Fair CLR 51.8 37.4 58% 30.77 0.0
28 19:35 NE 3 10.00 Fair CLR 50 35.6 58% 30.77 0.0
28 19:15 N 5 10.00 Fair CLR 51.8 35.6 54% 30.77 0.0
28 18:55 NE 6 10.00 Fair CLR 51.8 37.4 58% 30.78 0.0
28 18:35 NE 5 10.00 Fair CLR 53.6 37.4 54% 30.78 0.0
28 18:15 Calm 10.00 Fair CLR 51.8 37.4 58% 30.79 0.0
28 17:55 NE 5 10.00 Fair CLR 53.6 39.2 58% 30.79 0.0
28 17:35 NE 9 10.00 Fair CLR 51.8 39.2 62% 30.79 0.0
28 17:15 N 9 10.00 Fair CLR 53.6 39.2 58% 30.79 0.0
28 16:55 NE 8 G 16 10.00 Partly Cloudy SCT041 SCT065 SCT095 53.6 37.4 54% 30.79 0.0
28 16:35 N 10 G 23 10.00 Thunderstorm in Vicinity SCT042 BKN065 OVC095 51.8 35.6 54% 30.79 0.0
28 16:15 W 6 G 16 10.00 Overcast BKN085 OVC110 59 35.6 42% 30.79 0.0
28 15:55 SW 15 G 23 10.00 Overcast SCT046 SCT070 OVC110 60.8 33.8 36% 30.78 0.0
28 15:35 S 15 G 22 10.00 Mostly Cloudy SCT042 SCT050 BKN070 60.8 35.6 39% 30.78 0.0
28 15:15 W 14 G 25 10.00 Fair CLR 62.6 35.6 37% 30.79 0.0
28 14:55 SW 10 G 23 10.00 Thunderstorm in Vicinity SCT055 62.6 35.6 37% 30.79 0.0
28 14:35 SW 10 G 17 10.00 Fair CLR 62.6 37.4 39% 30.8 0.0
28 14:15 SW 9 G 18 10.00 Partly Cloudy SCT090 60.8 37.4 42% 30.81 0.0
28 13:55 SW 10 G 20 10.00 Partly Cloudy SCT080 59 37.4 45% 30.81 0.0
28 13:35 SW 16 G 28 10.00 Fair CLR 60.8 37.4 42% 30.81 0.0
28 13:15 SW 10 G 26 10.00 Fair CLR 60.8 37.4 42% 30.82 0.0
28 12:55 SW 12 G 22 10.00 Fair CLR 60.8 37.4 42% 30.83 0.0
28 12:15 SW 12 G 16 10.00 Fair CLR 57.2 39.2 51% 30.85 0.0
28 11:55 SW 13 G 18 10.00 Fair CLR 53.6 37.4 54% 30.85 0.0
28 11:35 SW 8 G 18 10.00 Fair CLR 59 39.2 48% 30.85 0.0
28 11:15 SW 13 10.00 Fair CLR 55.4 37.4 51% 30.85 0.0
28 10:55 SW 9 10.00 Fair CLR 57.2 39.2 51% 30.85 0.0
28 10:35 SW 8 10.00 Fair CLR 53.6 37.4 54% 30.85 0.0
28 10:15 SW 8 10.00 Fair CLR 55.4 37.4 51% 30.84 0.0
28 09:55 SW 12 10.00 Fair CLR 53.6 37.4 54% 30.84 0.0
28 09:35 SW 10 10.00 Fair CLR 51.8 37.4 58% 30.84 0.0
28 09:15 SW 12 10.00 Partly Cloudy SCT090 50 37.4 62% 46 30.84 0.0
28 08:55 SW 10 G 16 10.00 Partly Cloudy SCT090 50 37.4 62% 46 30.84 0.0
28 08:35 SW 10 10.00 Fair CLR 50 37.4 62% 46 30.84 0.0
28 08:15 SW 9 10.00 Fair CLR 50 35.6 58% 47 30.83 0.0
28 07:55 SW 10 10.00 Fair CLR 48.2 35.6 62% 44 30.83 0.0
28 07:35 SW 10 10.00 Fair CLR 46.4 35.6 66% 42 30.82 0.0
28 07:15 SW 12 10.00 Fair CLR 46.4 35.6 66% 42 30.82 0.0
28 06:55 SW 13 10.00 Fair CLR 46.4 35.6 66% 41 30.81 0.0
28 06:35 SW 13 10.00 Fair CLR 46.4 35.6 66% 41 30.81 0.0
28 06:15 SW 13 10.00 Fair CLR 46.4 35.6 66% 41 30.8 0.0
28 05:55 SW 14 10.00 Fair CLR 46.4 35.6 66% 41 30.8 0.0
28 05:35 SW 14 10.00 Fair CLR 46.4 35.6 66% 41 30.79 0.0
28 05:15 SW 15 G 18 10.00 Fair CLR 46.4 35.6 66% 41 30.79 0.0
28 04:55 SW 14 G 21 10.00 Fair CLR 46.4 35.6 66% 41 30.79 0.0
28 04:35 SW 13 10.00 Fair CLR 46.4 35.6 66% 41 30.79 0.0
28 04:15 SW 14 10.00 Fair CLR 46.4 35.6 66% 41 30.79 0.0
28 03:55 SW 13 10.00 Fair CLR 46.4 35.6 66% 41 30.8 0.0
28 03:35 SW 13 10.00 Fair CLR 46.4 33.8 62% 41 30.81 0.0
28 03:15 SW 12 10.00 Partly Cloudy SCT100 46.4 33.8 62% 42 30.81 0.0
28 02:55 SW 10 10.00 Partly Cloudy SCT090 48.2 33.8 58% 44 30.81 0.0
28 02:35 SW 10 10.00 Fair CLR 50 33.8 54% 46 30.82 0.0
28 02:15 SW 9 10.00 Fair CLR 50 33.8 54% 47 30.82 0.0
28 01:55 SW 8 10.00 Fair CLR 50 33.8 54% 47 30.82 0.0
28 01:35 SW 3 10.00 Fair CLR 51.8 33.8 50% 30.82 0.0
28 01:15 SW 3 10.00 Partly Cloudy SCT090 51.8 33.8 50% 30.82 0.0
28 00:55 SW 5 10.00 Partly Cloudy SCT070 SCT100 51.8 33.8 50% 30.82 0.0
28 00:35 W 3 10.00 Overcast SCT070 BKN090 OVC110 51.8 32 47% 30.82 0.0
28 00:15 Calm 10.00 Mostly Cloudy SCT075 BKN100 51.8 33.8 50% 30.82 0.0
Date Time (mdt) Wind (mph) Vis. (mi.) Weather Sky Cond. Air Dwpt Max. Min. Relative Humidity Wind Chill (°F) Heat Index (°F) altimeter (in) sea level (mb) 1 hr 3 hr 6 hr
6 hour
Temperature (ºF) Pressure Precipitation (in)